sensor_id;sensor_type;location;lat;lon;timestamp;pressure;altitude;pressure_sealevel;temperature;humidity
64632;BME280;58358;50.936;0.246;2023-02-19T00:01:40;101719.78;;;8.90;74.54
64632;BME280;58358;50.936;0.246;2023-02-19T00:04:05;101718.07;;;8.66;75.81
64632;BME280;58358;50.936;0.246;2023-02-19T00:06:32;101722.71;;;9.16;73.83
64632;BME280;58358;50.936;0.246;2023-02-19T00:08:56;101720.89;;;8.15;71.64
64632;BME280;58358;50.936;0.246;2023-02-19T00:11:23;101726.56;;;9.68;70.74
64632;BME280;58358;50.936;0.246;2023-02-19T00:13:48;101736.68;;;9.77;70.61
64632;BME280;58358;50.936;0.246;2023-02-19T00:16:13;101725.63;;;9.52;71.67
64632;BME280;58358;50.936;0.246;2023-02-19T00:18:38;101732.82;;;9.06;72.41
64632;BME280;58358;50.936;0.246;2023-02-19T00:21:03;101739.17;;;8.63;73.02
64632;BME280;58358;50.936;0.246;2023-02-19T00:23:30;101739.69;;;8.24;74.51
64632;BME280;58358;50.936;0.246;2023-02-19T00:25:55;101743.97;;;8.34;74.89
64632;BME280;58358;50.936;0.246;2023-02-19T00:28:21;101743.85;;;8.13;76.26
64632;BME280;58358;50.936;0.246;2023-02-19T00:30:46;101747.48;;;7.67;78.76
64632;BME280;58358;50.936;0.246;2023-02-19T00:33:12;101750.14;;;8.41;75.31
64632;BME280;58358;50.936;0.246;2023-02-19T00:35:37;101745.65;;;7.46;79.00
64632;BME280;58358;50.936;0.246;2023-02-19T00:38:03;101750.37;;;6.95;82.54
64632;BME280;58358;50.936;0.246;2023-02-19T00:40:28;101751.33;;;8.19;78.13
64632;BME280;58358;50.936;0.246;2023-02-19T00:42:54;101752.19;;;6.75;83.23
64632;BME280;58358;50.936;0.246;2023-02-19T00:45:20;101756.33;;;7.89;80.18
64632;BME280;58358;50.936;0.246;2023-02-19T00:47:45;101757.22;;;8.13;77.52
64632;BME280;58358;50.936;0.246;2023-02-19T00:50:11;101757.41;;;8.59;75.41
64632;BME280;58358;50.936;0.246;2023-02-19T00:52:37;101758.94;;;8.39;76.73
64632;BME280;58358;50.936;0.246;2023-02-19T00:55:03;101759.71;;;7.93;78.14
64632;BME280;58358;50.936;0.246;2023-02-19T00:57:28;101765.86;;;8.10;77.44
64632;BME280;58358;50.936;0.246;2023-02-19T00:59:54;101769.08;;;7.01;81.22
64632;BME280;58358;50.936;0.246;2023-02-19T01:02:20;101772.90;;;7.22;82.04
64632;BME280;58358;50.936;0.246;2023-02-19T01:04:45;101778.67;;;7.16;81.97
64632;BME280;58358;50.936;0.246;2023-02-19T01:07:12;101782.44;;;7.83;78.67
64632;BME280;58358;50.936;0.246;2023-02-19T01:09:37;101782.39;;;7.45;78.24
64632;BME280;58358;50.936;0.246;2023-02-19T01:12:03;101787.09;;;7.56;80.82
64632;BME280;58358;50.936;0.246;2023-02-19T01:14:29;101790.78;;;7.83;80.53
64632;BME280;58358;50.936;0.246;2023-02-19T01:16:54;101789.59;;;7.55;81.82
64632;BME280;58358;50.936;0.246;2023-02-19T01:19:20;101791.84;;;6.62;82.79
64632;BME280;58358;50.936;0.246;2023-02-19T01:21:46;101794.88;;;6.88;81.99
64632;BME280;58358;50.936;0.246;2023-02-19T01:24:12;101793.47;;;7.21;83.43
64632;BME280;58358;50.936;0.246;2023-02-19T01:26:38;101790.41;;;6.69;86.71
64632;BME280;58358;50.936;0.246;2023-02-19T01:29:03;101788.59;;;6.71;87.96
64632;BME280;58358;50.936;0.246;2023-02-19T01:31:29;101790.64;;;6.17;90.76
64632;BME280;58358;50.936;0.246;2023-02-19T01:33:56;101790.70;;;5.95;89.55
64632;BME280;58358;50.936;0.246;2023-02-19T01:36:20;101795.80;;;6.79;89.56
64632;BME280;58358;50.936;0.246;2023-02-19T01:38:46;101800.89;;;6.18;91.90
64632;BME280;58358;50.936;0.246;2023-02-19T01:41:13;101800.64;;;6.43;92.13
64632;BME280;58358;50.936;0.246;2023-02-19T01:46:03;101805.08;;;6.67;89.94
64632;BME280;58358;50.936;0.246;2023-02-19T01:48:31;101805.75;;;6.47;90.11
64632;BME280;58358;50.936;0.246;2023-02-19T01:50:59;101804.24;;;7.14;87.76
64632;BME280;58358;50.936;0.246;2023-02-19T01:53:22;101800.48;;;6.77;89.57
64632;BME280;58358;50.936;0.246;2023-02-19T01:55:47;101800.06;;;6.54;90.05
64632;BME280;58358;50.936;0.246;2023-02-19T01:58:12;101800.27;;;6.31;92.04
64632;BME280;58358;50.936;0.246;2023-02-19T02:00:37;101804.65;;;6.09;91.48
64632;BME280;58358;50.936;0.246;2023-02-19T02:03:03;101806.70;;;7.00;89.92
64632;BME280;58358;50.936;0.246;2023-02-19T02:05:38;101803.04;;;6.78;89.70
64632;BME280;58358;50.936;0.246;2023-02-19T02:07:55;101805.00;;;6.62;89.31
64632;BME280;58358;50.936;0.246;2023-02-19T02:10:20;101811.68;;;6.70;90.41
64632;BME280;58358;50.936;0.246;2023-02-19T02:12:46;101815.37;;;6.92;90.59
64632;BME280;58358;50.936;0.246;2023-02-19T02:15:12;101815.21;;;6.45;90.23
64632;BME280;58358;50.936;0.246;2023-02-19T02:17:43;101812.65;;;6.13;92.26
64632;BME280;58358;50.936;0.246;2023-02-19T02:20:17;101818.46;;;6.54;92.63
64632;BME280;58358;50.936;0.246;2023-02-19T02:22:32;101817.07;;;6.88;90.52
64632;BME280;58358;50.936;0.246;2023-02-19T02:25:14;101814.68;;;6.00;91.41
64632;BME280;58358;50.936;0.246;2023-02-19T02:27:37;101817.81;;;6.83;88.58
64632;BME280;58358;50.936;0.246;2023-02-19T02:32:13;101822.32;;;6.81;87.82
64632;BME280;58358;50.936;0.246;2023-02-19T02:34:44;101819.81;;;6.08;92.38
64632;BME280;58358;50.936;0.246;2023-02-19T02:37:04;101823.84;;;6.61;89.44
64632;BME280;58358;50.936;0.246;2023-02-19T02:39:29;101820.89;;;6.63;88.04
64632;BME280;58358;50.936;0.246;2023-02-19T02:41:56;101820.26;;;6.96;86.51
64632;BME280;58358;50.936;0.246;2023-02-19T02:44:20;101821.74;;;6.87;86.65
64632;BME280;58358;50.936;0.246;2023-02-19T02:46:45;101822.52;;;7.16;84.74
64632;BME280;58358;50.936;0.246;2023-02-19T02:49:16;101827.30;;;7.02;85.94
64632;BME280;58358;50.936;0.246;2023-02-19T02:51:39;101825.20;;;5.88;91.19
64632;BME280;58358;50.936;0.246;2023-02-19T02:54:05;101822.58;;;6.16;91.16
64632;BME280;58358;50.936;0.246;2023-02-19T02:56:28;101827.07;;;6.06;90.36
64632;BME280;58358;50.936;0.246;2023-02-19T02:58:55;101825.98;;;4.91;93.42
64632;BME280;58358;50.936;0.246;2023-02-19T03:01:23;101823.82;;;5.77;93.52
64632;BME280;58358;50.936;0.246;2023-02-19T03:03:47;101831.83;;;6.08;90.81
64632;BME280;58358;50.936;0.246;2023-02-19T03:06:12;101840.44;;;5.19;91.60
64632;BME280;58358;50.936;0.246;2023-02-19T03:08:40;101844.80;;;5.80;91.40
64632;BME280;58358;50.936;0.246;2023-02-19T03:11:05;101840.11;;;6.32;90.66
64632;BME280;58358;50.936;0.246;2023-02-19T03:13:33;101844.59;;;5.63;91.84
64632;BME280;58358;50.936;0.246;2023-02-19T03:15:57;101842.51;;;5.93;91.39
64632;BME280;58358;50.936;0.246;2023-02-19T03:18:20;101845.90;;;5.77;90.65
64632;BME280;58358;50.936;0.246;2023-02-19T03:20:47;101841.51;;;6.56;88.41
64632;BME280;58358;50.936;0.246;2023-02-19T03:23:12;101848.21;;;5.71;90.47
64632;BME280;58358;50.936;0.246;2023-02-19T03:25:37;101849.38;;;5.44;93.44
64632;BME280;58358;50.936;0.246;2023-02-19T03:28:06;101845.84;;;5.44;93.09
64632;BME280;58358;50.936;0.246;2023-02-19T03:30:30;101851.76;;;5.63;92.66
64632;BME280;58358;50.936;0.246;2023-02-19T03:32:56;101856.79;;;5.28;93.72
64632;BME280;58358;50.936;0.246;2023-02-19T03:35:22;101858.34;;;4.82;95.68
64632;BME280;58358;50.936;0.246;2023-02-19T03:37:51;101863.30;;;5.83;92.20
64632;BME280;58358;50.936;0.246;2023-02-19T03:40:12;101869.31;;;5.21;93.64
64632;BME280;58358;50.936;0.246;2023-02-19T03:42:42;101862.93;;;5.89;91.02
64632;BME280;58358;50.936;0.246;2023-02-19T03:45:16;101867.05;;;6.08;89.79
64632;BME280;58358;50.936;0.246;2023-02-19T03:47:33;101869.61;;;6.87;85.49
64632;BME280;58358;50.936;0.246;2023-02-19T03:49:59;101870.34;;;6.62;85.20
64632;BME280;58358;50.936;0.246;2023-02-19T03:52:24;101873.00;;;6.59;84.16
64632;BME280;58358;50.936;0.246;2023-02-19T03:54:51;101879.42;;;5.99;87.27
64632;BME280;58358;50.936;0.246;2023-02-19T03:57:16;101880.26;;;6.39;86.35
64632;BME280;58358;50.936;0.246;2023-02-19T03:59:42;101881.50;;;5.24;88.32
64632;BME280;58358;50.936;0.246;2023-02-19T04:02:06;101873.23;;;6.33;86.28
64632;BME280;58358;50.936;0.246;2023-02-19T04:04:31;101880.15;;;5.88;86.93
64632;BME280;58358;50.936;0.246;2023-02-19T04:06:56;101890.52;;;5.46;89.80
64632;BME280;58358;50.936;0.246;2023-02-19T04:09:21;101896.18;;;5.74;88.77
64632;BME280;58358;50.936;0.246;2023-02-19T04:11:46;101902.05;;;5.71;90.20
64632;BME280;58358;50.936;0.246;2023-02-19T04:14:15;101906.64;;;5.97;88.00
64632;BME280;58358;50.936;0.246;2023-02-19T04:16:40;101898.82;;;6.65;83.90
64632;BME280;58358;50.936;0.246;2023-02-19T04:19:05;101894.08;;;6.37;85.49
64632;BME280;58358;50.936;0.246;2023-02-19T04:21:29;101902.19;;;6.19;85.13
64632;BME280;58358;50.936;0.246;2023-02-19T04:23:54;101909.96;;;5.83;86.07
64632;BME280;58358;50.936;0.246;2023-02-19T04:26:20;101916.56;;;6.21;84.80
64632;BME280;58358;50.936;0.246;2023-02-19T04:28:45;101917.37;;;6.23;84.02
64632;BME280;58358;50.936;0.246;2023-02-19T04:31:11;101914.59;;;6.64;82.28
64632;BME280;58358;50.936;0.246;2023-02-19T04:33:36;101917.26;;;6.99;80.11
64632;BME280;58358;50.936;0.246;2023-02-19T04:36:02;101925.56;;;5.82;84.99
64632;BME280;58358;50.936;0.246;2023-02-19T04:38:27;101925.42;;;6.20;83.37
64632;BME280;58358;50.936;0.246;2023-02-19T04:40:53;101923.94;;;5.96;84.46
64632;BME280;58358;50.936;0.246;2023-02-19T04:43:19;101924.78;;;6.33;84.80
64632;BME280;58358;50.936;0.246;2023-02-19T04:45:45;101934.37;;;5.48;86.41
64632;BME280;58358;50.936;0.246;2023-02-19T04:48:11;101936.09;;;5.22;87.09
64632;BME280;58358;50.936;0.246;2023-02-19T04:50:37;101941.92;;;5.45;86.07
64632;BME280;58358;50.936;0.246;2023-02-19T04:53:02;101951.49;;;5.66;86.73
64632;BME280;58358;50.936;0.246;2023-02-19T04:55:27;101955.50;;;6.53;83.28
64632;BME280;58358;50.936;0.246;2023-02-19T04:57:52;101967.68;;;6.33;82.57
64632;BME280;58358;50.936;0.246;2023-02-19T05:00:18;101971.13;;;6.15;83.62
64632;BME280;58358;50.936;0.246;2023-02-19T05:02:43;101969.34;;;5.12;87.38
64632;BME280;58358;50.936;0.246;2023-02-19T05:05:09;101972.26;;;5.95;84.90
64632;BME280;58358;50.936;0.246;2023-02-19T05:07:35;101975.28;;;6.43;82.53
64632;BME280;58358;50.936;0.246;2023-02-19T05:10:00;101985.06;;;5.86;84.38
64632;BME280;58358;50.936;0.246;2023-02-19T05:12:26;101981.85;;;6.13;84.89
64632;BME280;58358;50.936;0.246;2023-02-19T05:14:52;101980.32;;;5.36;85.19
64632;BME280;58358;50.936;0.246;2023-02-19T05:17:17;101982.61;;;5.30;85.17
64632;BME280;58358;50.936;0.246;2023-02-19T05:19:42;101982.93;;;5.88;84.78
64632;BME280;58358;50.936;0.246;2023-02-19T05:22:08;101980.52;;;5.37;85.84
64632;BME280;58358;50.936;0.246;2023-02-19T05:24:33;101983.05;;;5.69;84.96
64632;BME280;58358;50.936;0.246;2023-02-19T05:26:59;101993.16;;;5.96;81.96
64632;BME280;58358;50.936;0.246;2023-02-19T05:29:24;101997.51;;;6.31;81.73
64632;BME280;58358;50.936;0.246;2023-02-19T05:31:50;101996.97;;;6.72;80.44
64632;BME280;58358;50.936;0.246;2023-02-19T05:34:15;101999.46;;;6.64;81.88
64632;BME280;58358;50.936;0.246;2023-02-19T05:36:40;102005.08;;;6.04;82.36
64632;BME280;58358;50.936;0.246;2023-02-19T05:39:05;102006.05;;;6.23;82.03
64632;BME280;58358;50.936;0.246;2023-02-19T05:41:31;102008.85;;;5.96;79.97
64632;BME280;58358;50.936;0.246;2023-02-19T05:43:57;102004.17;;;6.18;81.22
64632;BME280;58358;50.936;0.246;2023-02-19T05:46:24;102005.79;;;6.93;79.01
64632;BME280;58358;50.936;0.246;2023-02-19T05:48:49;102008.15;;;6.55;78.40
64632;BME280;58358;50.936;0.246;2023-02-19T05:51:15;102014.18;;;6.16;80.22
64632;BME280;58358;50.936;0.246;2023-02-19T05:53:38;102014.49;;;6.43;79.87
64632;BME280;58358;50.936;0.246;2023-02-19T05:56:12;102014.70;;;5.80;80.93
64632;BME280;58358;50.936;0.246;2023-02-19T05:58:29;102015.76;;;5.57;83.00
64632;BME280;58358;50.936;0.246;2023-02-19T06:00:55;102019.96;;;5.79;82.99
64632;BME280;58358;50.936;0.246;2023-02-19T06:03:20;102021.25;;;6.70;81.02
64632;BME280;58358;50.936;0.246;2023-02-19T06:05:46;102022.88;;;6.67;78.87
64632;BME280;58358;50.936;0.246;2023-02-19T06:08:13;102017.29;;;7.43;77.21
64632;BME280;58358;50.936;0.246;2023-02-19T06:10:38;102017.58;;;7.19;76.30
64632;BME280;58358;50.936;0.246;2023-02-19T06:13:02;102013.19;;;6.83;76.40
64632;BME280;58358;50.936;0.246;2023-02-19T06:15:28;102018.74;;;7.75;73.86
64632;BME280;58358;50.936;0.246;2023-02-19T06:17:54;102019.33;;;7.86;73.47
64632;BME280;58358;50.936;0.246;2023-02-19T06:20:19;102026.96;;;8.06;72.09
64632;BME280;58358;50.936;0.246;2023-02-19T06:22:45;102032.31;;;7.75;72.37
64632;BME280;58358;50.936;0.246;2023-02-19T06:25:11;102033.38;;;7.90;71.42
64632;BME280;58358;50.936;0.246;2023-02-19T06:27:37;102028.80;;;7.12;72.50
64632;BME280;58358;50.936;0.246;2023-02-19T06:30:02;102027.81;;;7.46;71.98
64632;BME280;58358;50.936;0.246;2023-02-19T06:32:28;102035.13;;;6.48;74.61
64632;BME280;58358;50.936;0.246;2023-02-19T06:34:54;102030.29;;;7.14;72.79
64632;BME280;58358;50.936;0.246;2023-02-19T06:37:20;102037.39;;;7.78;70.45
64632;BME280;58358;50.936;0.246;2023-02-19T06:39:45;102045.85;;;7.00;72.93
64632;BME280;58358;50.936;0.246;2023-02-19T06:42:11;102043.03;;;5.83;78.12
64632;BME280;58358;50.936;0.246;2023-02-19T06:44:36;102044.94;;;6.39;76.49
64632;BME280;58358;50.936;0.246;2023-02-19T06:47:01;102043.39;;;5.42;77.36
64632;BME280;58358;50.936;0.246;2023-02-19T06:49:27;102048.46;;;3.88;80.26
64632;BME280;58358;50.936;0.246;2023-02-19T06:51:52;102047.76;;;5.84;78.37
64632;BME280;58358;50.936;0.246;2023-02-19T06:54:18;102050.05;;;6.01;78.47
64632;BME280;58358;50.936;0.246;2023-02-19T06:56:43;102045.03;;;5.41;78.84
64632;BME280;58358;50.936;0.246;2023-02-19T06:59:11;102049.60;;;6.52;77.14
64632;BME280;58358;50.936;0.246;2023-02-19T07:01:35;102051.63;;;6.45;75.53
64632;BME280;58358;50.936;0.246;2023-02-19T07:03:59;102059.85;;;6.16;74.90
64632;BME280;58358;50.936;0.246;2023-02-19T07:06:25;102073.71;;;5.86;74.90
64632;BME280;58358;50.936;0.246;2023-02-19T07:08:51;102081.14;;;5.83;73.69
64632;BME280;58358;50.936;0.246;2023-02-19T07:11:16;102082.04;;;4.41;78.62
64632;BME280;58358;50.936;0.246;2023-02-19T07:13:41;102081.62;;;5.45;76.04
64632;BME280;58358;50.936;0.246;2023-02-19T07:16:08;102081.12;;;5.61;76.39
64632;BME280;58358;50.936;0.246;2023-02-19T07:18:33;102067.94;;;5.59;79.43
64632;BME280;58358;50.936;0.246;2023-02-19T07:21:02;102066.56;;;5.50;78.50
64632;BME280;58358;50.936;0.246;2023-02-19T07:23:24;102074.96;;;4.63;82.32
64632;BME280;58358;50.936;0.246;2023-02-19T07:25:49;102071.57;;;5.42;79.08
64632;BME280;58358;50.936;0.246;2023-02-19T07:28:15;102079.58;;;5.00;79.81
64632;BME280;58358;50.936;0.246;2023-02-19T07:30:40;102077.99;;;5.24;81.30
64632;BME280;58358;50.936;0.246;2023-02-19T07:33:06;102078.62;;;5.46;80.30
64632;BME280;58358;50.936;0.246;2023-02-19T07:35:31;102086.25;;;6.49;77.17
64632;BME280;58358;50.936;0.246;2023-02-19T07:37:56;102094.68;;;6.38;76.24
64632;BME280;58358;50.936;0.246;2023-02-19T07:40:22;102098.41;;;5.89;78.18
64632;BME280;58358;50.936;0.246;2023-02-19T07:42:47;102100.84;;;5.54;77.27
64632;BME280;58358;50.936;0.246;2023-02-19T07:45:13;102121.55;;;6.43;77.12
64632;BME280;58358;50.936;0.246;2023-02-19T07:47:38;102122.03;;;6.43;76.99
64632;BME280;58358;50.936;0.246;2023-02-19T07:50:04;102130.38;;;6.92;74.96
64632;BME280;58358;50.936;0.246;2023-02-19T07:52:32;102124.31;;;7.08;74.22
64632;BME280;58358;50.936;0.246;2023-02-19T07:54:56;102126.53;;;6.69;74.09
64632;BME280;58358;50.936;0.246;2023-02-19T07:57:22;102127.92;;;6.07;76.28
64632;BME280;58358;50.936;0.246;2023-02-19T07:59:47;102131.80;;;7.24;73.48
64632;BME280;58358;50.936;0.246;2023-02-19T08:02:15;102132.80;;;8.17;71.92
64632;BME280;58358;50.936;0.246;2023-02-19T08:04:38;102142.52;;;7.37;73.57
64632;BME280;58358;50.936;0.246;2023-02-19T08:07:04;102138.39;;;7.66;72.93
64632;BME280;58358;50.936;0.246;2023-02-19T08:09:30;102124.97;;;7.23;73.66
64632;BME280;58358;50.936;0.246;2023-02-19T08:11:56;102124.49;;;6.63;76.34
64632;BME280;58358;50.936;0.246;2023-02-19T08:14:24;102126.07;;;5.82;80.80
64632;BME280;58358;50.936;0.246;2023-02-19T08:16:49;102134.17;;;6.15;79.47
64632;BME280;58358;50.936;0.246;2023-02-19T08:19:12;102132.70;;;5.53;80.54
64632;BME280;58358;50.936;0.246;2023-02-19T08:21:38;102142.77;;;6.07;79.58
64632;BME280;58358;50.936;0.246;2023-02-19T08:24:05;102152.79;;;6.37;78.35
64632;BME280;58358;50.936;0.246;2023-02-19T08:26:29;102164.63;;;5.77;79.43
64632;BME280;58358;50.936;0.246;2023-02-19T08:28:55;102164.43;;;5.65;79.00
64632;BME280;58358;50.936;0.246;2023-02-19T08:31:21;102165.22;;;6.51;78.23
64632;BME280;58358;50.936;0.246;2023-02-19T08:33:47;102160.53;;;6.72;77.52
64632;BME280;58358;50.936;0.246;2023-02-19T08:36:13;102156.98;;;5.86;80.44
64632;BME280;58358;50.936;0.246;2023-02-19T08:38:38;102154.13;;;6.07;82.16
64632;BME280;58358;50.936;0.246;2023-02-19T08:41:05;102163.57;;;5.49;82.76
64632;BME280;58358;50.936;0.246;2023-02-19T08:43:29;102165.06;;;5.99;80.32
64632;BME280;58358;50.936;0.246;2023-02-19T08:45:55;102163.81;;;6.30;79.67
64632;BME280;58358;50.936;0.246;2023-02-19T08:48:21;102166.24;;;6.00;81.70
64632;BME280;58358;50.936;0.246;2023-02-19T08:50:53;102179.60;;;5.94;82.62
64632;BME280;58358;50.936;0.246;2023-02-19T08:53:13;102194.52;;;5.72;82.30
64632;BME280;58358;50.936;0.246;2023-02-19T08:55:38;102201.20;;;5.82;82.56
64632;BME280;58358;50.936;0.246;2023-02-19T08:58:04;102213.01;;;5.81;81.58
64632;BME280;58358;50.936;0.246;2023-02-19T09:00:29;102219.36;;;5.55;81.82
64632;BME280;58358;50.936;0.246;2023-02-19T09:02:56;102217.39;;;6.15;80.54
64632;BME280;58358;50.936;0.246;2023-02-19T09:05:20;102209.16;;;5.14;80.88
64632;BME280;58358;50.936;0.246;2023-02-19T09:07:46;102192.38;;;5.69;81.22
64632;BME280;58358;50.936;0.246;2023-02-19T09:10:13;102197.78;;;6.10;80.70
64632;BME280;58358;50.936;0.246;2023-02-19T09:12:38;102212.55;;;5.59;81.97
64632;BME280;58358;50.936;0.246;2023-02-19T09:15:04;102219.39;;;6.37;80.52
64632;BME280;58358;50.936;0.246;2023-02-19T09:17:29;102213.77;;;5.99;81.13
64632;BME280;58358;50.936;0.246;2023-02-19T09:19:55;102203.18;;;5.57;83.22
64632;BME280;58358;50.936;0.246;2023-02-19T09:22:21;102212.89;;;5.63;84.04
64632;BME280;58358;50.936;0.246;2023-02-19T09:24:47;102219.83;;;5.40;85.15
64632;BME280;58358;50.936;0.246;2023-02-19T09:27:15;102215.34;;;4.90;85.77
64632;BME280;58358;50.936;0.246;2023-02-19T09:29:38;102211.22;;;5.60;84.06
64632;BME280;58358;50.936;0.246;2023-02-19T09:32:04;102203.18;;;5.71;83.08
64632;BME280;58358;50.936;0.246;2023-02-19T09:34:30;102213.77;;;5.43;82.00
64632;BME280;58358;50.936;0.246;2023-02-19T09:36:55;102209.61;;;4.95;83.35
64632;BME280;58358;50.936;0.246;2023-02-19T09:39:21;102209.73;;;5.18;82.93
64632;BME280;58358;50.936;0.246;2023-02-19T09:41:49;102216.15;;;5.67;83.34
64632;BME280;58358;50.936;0.246;2023-02-19T09:44:17;102229.58;;;4.99;84.61
64632;BME280;58358;50.936;0.246;2023-02-19T09:46:43;102231.85;;;6.29;82.43
64632;BME280;58358;50.936;0.246;2023-02-19T09:49:06;102228.67;;;5.86;83.99
64632;BME280;58358;50.936;0.246;2023-02-19T09:51:32;102226.19;;;6.19;83.44
64632;BME280;58358;50.936;0.246;2023-02-19T09:53:57;102234.34;;;3.99;87.83
64632;BME280;58358;50.936;0.246;2023-02-19T09:56:23;102221.34;;;5.30;87.75
64632;BME280;58358;50.936;0.246;2023-02-19T09:58:50;102215.28;;;5.59;85.13
64632;BME280;58358;50.936;0.246;2023-02-19T10:01:14;102230.59;;;5.32;86.76
64632;BME280;58358;50.936;0.246;2023-02-19T10:03:43;102223.23;;;4.47;87.51
64632;BME280;58358;50.936;0.246;2023-02-19T10:06:06;102218.68;;;4.93;86.79
64632;BME280;58358;50.936;0.246;2023-02-19T10:08:33;102227.02;;;5.52;86.33
64632;BME280;58358;50.936;0.246;2023-02-19T10:10:57;102217.60;;;5.81;84.35
64632;BME280;58358;50.936;0.246;2023-02-19T10:13:24;102223.57;;;6.12;83.60
64632;BME280;58358;50.936;0.246;2023-02-19T10:15:50;102235.99;;;5.51;84.88
64632;BME280;58358;50.936;0.246;2023-02-19T10:18:16;102242.23;;;6.17;83.27
64632;BME280;58358;50.936;0.246;2023-02-19T10:20:39;102249.22;;;7.17;80.44
64632;BME280;58358;50.936;0.246;2023-02-19T10:23:06;102254.03;;;6.10;81.21
64632;BME280;58358;50.936;0.246;2023-02-19T10:25:32;102266.61;;;6.50;81.90
64632;BME280;58358;50.936;0.246;2023-02-19T10:27:57;102270.34;;;7.08;80.93
64632;BME280;58358;50.936;0.246;2023-02-19T10:30:24;102269.82;;;7.11;79.78
64632;BME280;58358;50.936;0.246;2023-02-19T10:33:00;102272.23;;;7.13;78.43
64632;BME280;58358;50.936;0.246;2023-02-19T10:35:14;102274.28;;;5.64;83.15
64632;BME280;58358;50.936;0.246;2023-02-19T10:37:45;102272.89;;;5.85;83.07
64632;BME280;58358;50.936;0.246;2023-02-19T10:42:31;102264.15;;;6.35;81.64
64632;BME280;58358;50.936;0.246;2023-02-19T10:44:59;102257.07;;;6.53;81.77
64632;BME280;58358;50.936;0.246;2023-02-19T10:47:24;102261.99;;;7.64;77.70
64632;BME280;58358;50.936;0.246;2023-02-19T10:49:49;102267.84;;;6.60;79.52
64632;BME280;58358;50.936;0.246;2023-02-19T10:52:16;102265.97;;;6.16;82.89
64632;BME280;58358;50.936;0.246;2023-02-19T10:54:39;102259.62;;;7.47;77.34
64632;BME280;58358;50.936;0.246;2023-02-19T10:59:31;102242.35;;;6.96;79.76
64632;BME280;58358;50.936;0.246;2023-02-19T11:01:58;102249.69;;;6.21;80.14
64632;BME280;58358;50.936;0.246;2023-02-19T11:04:23;102250.24;;;7.73;77.88
64632;BME280;58358;50.936;0.246;2023-02-19T11:06:49;102252.55;;;6.62;80.69
64632;BME280;58358;50.936;0.246;2023-02-19T11:09:22;102261.16;;;6.20;81.75
64632;BME280;58358;50.936;0.246;2023-02-19T11:11:40;102261.84;;;6.44;82.20
64632;BME280;58358;50.936;0.246;2023-02-19T11:14:12;102258.41;;;6.50;81.12
64632;BME280;58358;50.936;0.246;2023-02-19T11:16:39;102262.97;;;7.02;81.05
64632;BME280;58358;50.936;0.246;2023-02-19T11:18:57;102265.50;;;7.12;78.93
64632;BME280;58358;50.936;0.246;2023-02-19T11:21:25;102259.65;;;7.07;80.24
64632;BME280;58358;50.936;0.246;2023-02-19T11:23:49;102265.89;;;7.16;79.52
64632;BME280;58358;50.936;0.246;2023-02-19T11:26:17;102267.87;;;7.30;77.83
64632;BME280;58358;50.936;0.246;2023-02-19T11:28:40;102267.82;;;7.72;77.71
64632;BME280;58358;50.936;0.246;2023-02-19T11:31:14;102273.04;;;7.35;77.37
64632;BME280;58358;50.936;0.246;2023-02-19T11:33:30;102260.73;;;6.92;80.40
64632;BME280;58358;50.936;0.246;2023-02-19T11:38:22;102264.11;;;7.75;75.20
64632;BME280;58358;50.936;0.246;2023-02-19T11:40:53;102266.86;;;7.08;77.83
64632;BME280;58358;50.936;0.246;2023-02-19T11:43:29;102268.85;;;6.99;77.62
64632;BME280;58358;50.936;0.246;2023-02-19T11:45:43;102269.25;;;6.98;78.22
64632;BME280;58358;50.936;0.246;2023-02-19T11:48:17;102278.30;;;7.15;77.49
64632;BME280;58358;50.936;0.246;2023-02-19T11:50:41;102275.40;;;7.27;76.78
64632;BME280;58358;50.936;0.246;2023-02-19T11:53:05;102274.73;;;7.25;77.22
64632;BME280;58358;50.936;0.246;2023-02-19T11:55:33;102273.92;;;8.48;74.08
64632;BME280;58358;50.936;0.246;2023-02-19T11:57:53;102278.22;;;8.15;73.57
64632;BME280;58358;50.936;0.246;2023-02-19T12:00:21;102273.88;;;8.36;71.35
64632;BME280;58358;50.936;0.246;2023-02-19T12:02:49;102272.84;;;9.10;69.94
64632;BME280;58358;50.936;0.246;2023-02-19T12:05:18;102271.60;;;8.78;69.47
64632;BME280;58358;50.936;0.246;2023-02-19T12:10:04;102264.84;;;8.30;70.42
64632;BME280;58358;50.936;0.246;2023-02-19T12:12:33;102259.35;;;7.21;72.38
64632;BME280;58358;50.936;0.246;2023-02-19T12:15:06;102263.68;;;7.40;73.68
64632;BME280;58358;50.936;0.246;2023-02-19T12:17:19;102275.24;;;7.74;72.02
64632;BME280;58358;50.936;0.246;2023-02-19T12:19:47;102270.46;;;8.00;70.21
64632;BME280;58358;50.936;0.246;2023-02-19T12:22:16;102269.11;;;8.06;70.95
64632;BME280;58358;50.936;0.246;2023-02-19T12:24:46;102264.13;;;8.47;70.22
64632;BME280;58358;50.936;0.246;2023-02-19T12:27:06;102267.61;;;8.22;70.92
64632;BME280;58358;50.936;0.246;2023-02-19T12:29:32;102265.41;;;8.34;70.23
64632;BME280;58358;50.936;0.246;2023-02-19T12:32:07;102254.68;;;8.71;66.56
64632;BME280;58358;50.936;0.246;2023-02-19T12:34:25;102251.53;;;8.24;68.41
64632;BME280;58358;50.936;0.246;2023-02-19T12:36:45;102256.28;;;8.07;68.58
64632;BME280;58358;50.936;0.246;2023-02-19T12:39:12;102254.84;;;8.59;67.63
64632;BME280;58358;50.936;0.246;2023-02-19T12:41:37;102244.74;;;9.02;65.33
64632;BME280;58358;50.936;0.246;2023-02-19T12:43:59;102236.15;;;8.82;66.59
64632;BME280;58358;50.936;0.246;2023-02-19T12:46:27;102236.54;;;9.90;62.90
64632;BME280;58358;50.936;0.246;2023-02-19T12:48:51;102238.18;;;8.87;65.02
64632;BME280;58358;50.936;0.246;2023-02-19T12:51:18;102225.01;;;8.31;67.59
64632;BME280;58358;50.936;0.246;2023-02-19T12:53:42;102215.60;;;9.53;65.46
64632;BME280;58358;50.936;0.246;2023-02-19T12:56:10;102214.82;;;9.30;64.53
64632;BME280;58358;50.936;0.246;2023-02-19T12:58:36;102223.92;;;10.23;62.89
64632;BME280;58358;50.936;0.246;2023-02-19T13:00:56;102224.93;;;8.97;65.19
64632;BME280;58358;50.936;0.246;2023-02-19T13:03:23;102233.46;;;9.33;63.98
64632;BME280;58358;50.936;0.246;2023-02-19T13:05:51;102229.03;;;9.26;63.01